Time;durP1;ratioP1;P1;durP2;ratioP2;P2;SDS_P1;SDS_P2;PMS_P1;PMS_P2;Temp;Humidity;BMP_temperature;BMP_pressure;BME280_temperature;BME280_humidity;BME280_pressure;Samples;Min_cycle;Max_cycle;Signal;HPM_P1;HPM_P2
2023/08/20 00:02:26;;;;;;;14.55;10.35;;;;;;;21.90;70.33;100955.91;1705930;80;21371;-55
2023/08/20 00:08:00;;;;;;;12.03;10.00;;;;;;;21.84;70.39;100961.03;1696509;80;21360;-56
2023/08/20 00:13:35;;;;;;;16.17;11.03;;;;;;;21.80;70.58;100955.61;1706037;81;21291;-55
2023/08/20 00:16:40;;;;;;;18.55;10.63;;;;;;;21.80;70.70;100961.75;1699224;80;21239;-55
2023/08/20 00:22:15;;;;;;;13.55;10.43;;;;;;;21.73;70.84;100949.25;1676156;81;21374;-56
2023/08/20 00:27:50;;;;;;;15.35;10.00;;;;;;;21.69;70.97;100961.94;1693767;80;21377;-54
2023/08/20 00:35:58;;;;;;;17.45;10.00;;;;;;;21.65;71.22;100959.33;1698869;81;21422;-55
2023/08/20 00:41:35;;;;;;;14.95;10.28;;;;;;;21.62;71.34;100958.41;1704195;78;21267;-55
2023/08/20 00:47:11;;;;;;;11.43;9.93;;;;;;;21.59;71.46;100950.52;1708614;80;21284;-55
2023/08/20 00:52:46;;;;;;;17.27;10.43;;;;;;;21.57;71.62;100948.50;1711766;80;21307;-55
2023/08/20 00:55:51;;;;;;;16.65;10.43;;;;;;;21.55;71.61;100953.45;1707901;80;21390;-55
2023/08/20 01:01:25;;;;;;;15.65;10.93;;;;;;;21.53;71.86;100943.06;1701385;80;21437;-56
2023/08/20 01:04:32;;;;;;;17.42;10.00;;;;;;;21.54;71.91;100946.18;1701602;80;21381;-55
2023/08/20 01:10:20;;;;;;;16.05;9.93;;;;;;;21.49;71.93;100937.66;1710214;80;21891;-55
2023/08/20 01:13:27;;;;;;;16.80;10.98;;;;;;;21.48;71.98;100940.16;1706095;80;21394;-56
2023/08/20 01:16:33;;;;;;;16.87;10.20;;;;;;;21.46;72.07;100942.31;1706089;80;21437;-55
2023/08/20 01:19:39;;;;;;;19.98;11.95;;;;;;;21.43;72.10;100933.03;1701388;80;21288;-56
2023/08/20 01:23:02;;;;;;;16.87;10.48;;;;;;;21.41;72.09;100937.12;1693607;80;21374;-56
2023/08/20 01:26:35;;;;;;;16.48;10.25;;;;;;;21.37;72.09;100935.89;1714447;80;21930;-56
2023/08/20 01:29:40;;;;;;;16.62;11.50;;;;;;;21.32;72.11;100932.95;1671808;80;22022;-56
2023/08/20 01:32:49;;;;;;;12.60;10.50;;;;;;;21.28;72.15;100933.95;1702213;80;21915;-56
2023/08/20 01:40:59;;;;;;;15.40;11.08;;;;;;;21.17;72.29;100927.76;1701911;79;21379;-56
2023/08/20 01:46:34;;;;;;;15.85;11.00;;;;;;;21.11;72.32;100929.22;1705544;80;21315;-56
2023/08/20 01:52:09;;;;;;;16.50;10.93;;;;;;;21.05;72.38;100928.23;1702348;79;21307;-55
2023/08/20 01:57:45;;;;;;;16.80;10.82;;;;;;;20.97;72.46;100929.06;1706271;80;21266;-55
2023/08/20 02:03:19;;;;;;;17.60;11.50;;;;;;;20.91;72.63;100928.03;1699886;81;21991;-55
2023/08/20 02:08:54;;;;;;;18.05;12.58;;;;;;;20.83;72.67;100928.32;1703463;79;21258;-55
2023/08/20 02:14:29;;;;;;;14.68;10.80;;;;;;;20.79;72.80;100920.10;1707554;80;21437;-55
2023/08/20 02:20:05;;;;;;;13.15;10.80;;;;;;;20.71;72.75;100924.04;1694817;80;21228;-55
2023/08/20 02:25:42;;;;;;;15.35;11.20;;;;;;;20.66;72.90;100925.82;1711956;80;21949;-55
2023/08/20 02:31:16;;;;;;;13.08;11.63;;;;;;;20.62;73.04;100928.20;1707452;80;21427;-56
2023/08/20 02:36:52;;;;;;;15.40;11.45;;;;;;;20.59;73.20;100927.80;1706871;79;21418;-55
2023/08/20 02:42:27;;;;;;;15.60;11.65;;;;;;;20.53;73.32;100937.89;1711754;80;21939;-56
2023/08/20 02:45:32;;;;;;;15.20;11.40;;;;;;;20.51;73.34;100933.64;1704102;81;21430;-56
2023/08/20 02:51:09;;;;;;;15.43;11.78;;;;;;;20.47;73.50;100936.58;1697485;80;21389;-57
2023/08/20 02:56:45;;;;;;;14.78;11.30;;;;;;;20.48;73.81;100922.45;1699954;82;21390;-56
2023/08/20 03:02:20;;;;;;;18.15;11.43;;;;;;;20.50;73.98;100926.39;1710205;78;21855;-56
2023/08/20 03:07:55;;;;;;;15.58;11.00;;;;;;;20.49;73.90;100933.01;1708691;79;21282;-56
2023/08/20 03:13:30;;;;;;;13.62;11.20;;;;;;;20.45;73.94;100927.08;1707025;78;21773;-56
2023/08/20 03:16:37;;;;;;;16.23;10.90;;;;;;;20.47;74.07;100934.63;1694155;80;21217;-55
2023/08/20 03:22:21;;;;;;;14.93;11.78;;;;;;;20.48;74.17;100932.71;1699405;80;21363;-55
2023/08/20 03:25:26;;;;;;;16.55;11.68;;;;;;;20.50;74.26;100937.52;1710812;80;21962;-54
2023/08/20 03:28:32;;;;;;;15.53;11.35;;;;;;;20.51;74.26;100935.03;1708563;80;21406;-55
2023/08/20 03:31:38;;;;;;;13.78;10.60;;;;;;;20.53;74.35;100942.63;1708637;78;21426;-55
2023/08/20 03:34:43;;;;;;;13.13;10.80;;;;;;;20.55;74.35;100943.26;1705211;79;23010;-55
2023/08/20 03:37:49;;;;;;;13.88;10.95;;;;;;;20.58;74.42;100935.84;1708865;80;21299;-56
2023/08/20 03:40:56;;;;;;;15.93;10.80;;;;;;;20.59;74.47;100931.97;1699924;81;21378;-54
2023/08/20 03:44:00;;;;;;;15.23;10.88;;;;;;;20.61;74.53;100931.21;1706990;79;22176;-55
2023/08/20 03:49:38;;;;;;;15.18;11.48;;;;;;;20.69;74.71;100935.10;1705589;80;21317;-56
2023/08/20 03:57:42;;;;;;;17.87;11.22;;;;;;;20.83;74.86;100936.67;1685172;81;21252;-56
2023/08/20 04:00:47;;;;;;;15.55;11.20;;;;;;;20.89;74.92;100937.14;1691774;80;21718;-57
2023/08/20 04:11:20;;;;;;;17.65;11.08;;;;;;;21.07;74.97;100930.25;1689676;80;21215;-56
2023/08/20 04:16:57;;;;;;;14.45;10.75;;;;;;;21.18;75.06;100926.70;1690254;82;21496;-54
2023/08/20 04:20:05;;;;;;;19.75;11.63;;;;;;;21.23;75.08;100932.39;1687500;81;21290;-55
2023/08/20 04:23:11;;;;;;;15.72;11.40;;;;;;;21.29;75.14;100930.10;1702131;80;21909;-55
2023/08/20 04:28:46;;;;;;;14.78;11.35;;;;;;;21.45;75.34;100932.27;1702890;81;21821;-54
2023/08/20 04:34:24;;;;;;;23.83;11.03;;;;;;;21.61;75.39;100930.20;1713136;78;21420;-55
2023/08/20 04:39:59;;;;;;;14.65;10.28;;;;;;;21.76;75.42;100929.30;1656142;80;21247;-55
2023/08/20 04:45:35;;;;;;;17.30;11.00;;;;;;;21.94;75.47;100940.95;1746890;80;21235;-56
2023/08/20 04:51:14;;;;;;;16.40;9.90;;;;;;;22.14;75.63;100941.51;1709933;80;21468;-55
2023/08/20 04:56:50;;;;;;;15.25;9.73;;;;;;;22.35;75.66;100942.90;1699466;80;21450;-55
2023/08/20 05:02:28;;;;;;;14.20;9.93;;;;;;;22.60;75.75;100949.16;1711955;78;21287;-55
2023/08/20 05:05:28;;;;;;;12.15;9.23;;;;;;;22.71;75.75;100957.56;1713227;79;21169;-55
2023/08/20 05:11:01;;;;;;;12.43;8.40;;;;;;;23.01;75.80;100949.93;1706597;80;21223;-55
2023/08/20 05:16:36;;;;;;;13.75;9.03;;;;;;;23.26;75.73;100951.11;1702098;81;21252;-54
2023/08/20 05:19:41;;;;;;;11.05;8.90;;;;;;;23.36;75.65;100949.39;1707880;80;22020;-55
2023/08/20 05:25:16;;;;;;;12.45;8.93;;;;;;;23.57;75.51;100943.69;1699608;79;21793;-55
2023/08/20 05:30:51;;;;;;;13.08;9.33;;;;;;;23.77;75.44;100945.50;1695953;81;21215;-55
2023/08/20 05:38:56;;;;;;;14.63;9.28;;;;;;;24.13;75.29;100947.11;1705158;80;21287;-55
2023/08/20 05:42:02;;;;;;;14.25;8.93;;;;;;;24.23;75.17;100939.74;1695990;81;21232;-55
2023/08/20 05:45:00;;;;;;;14.55;9.50;;;;;;;24.34;74.99;100941.63;1707097;81;21228;-56
2023/08/20 05:50:34;;;;;;;13.75;9.15;;;;;;;24.58;74.85;100938.98;1714312;80;22170;-55
2023/08/20 05:56:10;;;;;;;16.55;9.68;;;;;;;24.81;74.63;100937.47;1716189;80;21968;-55
2023/08/20 05:59:15;;;;;;;14.58;9.08;;;;;;;24.91;74.58;100933.40;1709421;78;21869;-55
2023/08/20 06:04:51;;;;;;;13.95;9.63;;;;;;;25.14;74.13;100924.48;1713408;80;21711;-55
2023/08/20 06:10:26;;;;;;;17.32;9.93;;;;;;;25.36;73.81;100942.22;1712182;80;21206;-55
2023/08/20 06:13:27;;;;;;;16.35;9.48;;;;;;;25.44;73.62;100931.96;1716753;79;21220;-55
2023/08/20 06:21:31;;;;;;;14.95;9.45;;;;;;;25.67;73.12;100930.32;1720344;78;21390;-55
2023/08/20 06:27:06;;;;;;;16.85;9.23;;;;;;;25.81;72.89;100928.81;1698924;81;21776;-55
2023/08/20 06:32:42;;;;;;;11.83;9.00;;;;;;;25.91;72.45;100933.14;1672248;82;21239;-54
2023/08/20 06:40:47;;;;;;;15.03;9.70;;;;;;;26.06;72.18;100926.31;1705693;79;21240;-56
2023/08/20 06:46:23;;;;;;;16.60;10.28;;;;;;;26.17;72.00;100927.58;1702631;82;21283;-57
2023/08/20 06:51:58;;;;;;;15.60;9.85;;;;;;;26.26;71.82;100926.52;1669184;81;21235;-56
2023/08/20 06:57:34;;;;;;;15.18;9.90;;;;;;;26.36;71.58;100922.42;1668693;84;22191;-55
2023/08/20 07:05:38;;;;;;;19.10;8.50;;;;;;;26.52;71.21;100923.41;1678375;81;21387;-56
2023/08/20 07:08:44;;;;;;;14.65;8.38;;;;;;;26.56;71.07;100926.81;1675736;82;21450;-55
2023/08/20 07:14:19;;;;;;;22.27;8.85;;;;;;;26.64;70.65;100915.66;1719884;80;21220;-55
2023/08/20 07:19:55;;;;;;;15.53;8.50;;;;;;;26.75;70.42;100919.70;1702874;80;21215;-55
2023/08/20 07:25:31;;;;;;;14.15;8.45;;;;;;;26.86;70.10;100908.83;1711364;80;21954;-54
2023/08/20 07:31:08;;;;;;;18.42;8.68;;;;;;;26.99;69.83;100908.94;1706085;80;21216;-56
2023/08/20 07:36:44;;;;;;;19.60;8.15;;;;;;;27.08;69.48;100899.73;1704143;79;21307;-56
2023/08/20 07:42:19;;;;;;;16.77;7.72;;;;;;;27.20;69.20;100891.06;1700932;80;21259;-55
2023/08/20 07:45:25;;;;;;;18.10;8.23;;;;;;;27.26;69.07;100896.99;1697895;80;21777;-55
2023/08/20 07:53:33;;;;;;;14.43;7.28;;;;;;;27.49;68.45;100893.78;1704170;80;21264;-56
2023/08/20 07:59:07;;;;;;;13.88;8.08;;;;;;;27.61;68.17;100882.58;1701085;81;21304;-56
2023/08/20 08:02:13;;;;;;;13.93;7.92;;;;;;;27.67;68.09;100881.47;1690658;82;21200;-56
2023/08/20 08:10:18;;;;;;;18.37;7.35;;;;;;;27.98;67.45;100872.59;1705857;80;21667;-56
2023/08/20 08:13:28;;;;;;;9.33;7.40;;;;;;;27.98;67.45;100872.59;1692621;81;21799;-56
2023/08/20 08:21:32;;;;;;;9.73;6.30;;;;;;;28.22;67.06;100872.91;1700548;80;21255;-56
2023/08/20 08:27:07;;;;;;;11.53;6.67;;;;;;;28.37;66.70;100874.34;1699073;80;21201;-56
2023/08/20 08:32:42;;;;;;;11.10;6.42;;;;;;;28.55;66.37;100875.21;1704577;80;21792;-55
2023/08/20 08:38:18;;;;;;;14.75;7.37;;;;;;;28.73;65.97;100871.83;1695151;79;21302;-55
2023/08/20 08:46:25;;;;;;;13.60;7.85;;;;;;;28.96;65.43;100870.66;1707040;79;21251;-55
2023/08/20 08:49:31;;;;;;;12.37;7.80;;;;;;;29.06;65.28;100872.62;1713579;79;21682;-56
2023/08/20 08:55:08;;;;;;;12.43;7.78;;;;;;;29.29;65.01;100871.19;1687762;80;21368;-56
2023/08/20 08:58:18;;;;;;;12.88;6.92;;;;;;;29.37;64.78;100868.59;1702484;79;21659;-55
2023/08/20 09:01:24;;;;;;;9.83;6.95;;;;;;;29.49;64.49;100875.33;1697614;79;21338;-57
2023/08/20 09:07:03;;;;;;;12.43;6.45;;;;;;;29.71;63.97;100865.94;1703856;79;22193;-55
2023/08/20 09:12:39;;;;;;;9.80;6.12;;;;;;;29.88;63.36;100863.02;1719976;80;21248;-56
2023/08/20 09:15:45;;;;;;;9.33;6.03;;;;;;;29.93;62.99;100863.00;1677487;81;21263;-56
2023/08/20 09:23:52;;;;;;;12.30;5.97;;;;;;;30.11;61.97;100854.41;1742204;78;21227;-56
2023/08/20 09:29:27;;;;;;;13.15;6.72;;;;;;;30.26;61.55;100847.25;1732822;80;21243;-56
2023/08/20 09:35:02;;;;;;;9.30;5.67;;;;;;;30.44;61.19;100854.47;1668694;82;21216;-57
2023/08/20 09:40:39;;;;;;;13.35;6.08;;;;;;;30.58;60.67;100855.47;1671464;80;21265;-57
2023/08/20 09:46:16;;;;;;;14.65;7.12;;;;;;;30.79;60.16;100857.58;1675350;81;21251;-56
2023/08/20 09:51:55;;;;;;;11.78;6.20;;;;;;;30.92;59.49;100854.02;1683330;80;21225;-56
2023/08/20 09:57:38;;;;;;;12.40;5.83;;;;;;;31.05;58.88;100851.91;1679275;81;21235;-56
2023/08/20 10:00:46;;;;;;;11.80;5.33;;;;;;;31.12;58.57;100844.48;1678547;80;21232;-56
2023/08/20 10:03:54;;;;;;;8.60;4.92;;;;;;;31.22;58.16;100847.20;1675866;81;21756;-57
2023/08/20 10:06:59;;;;;;;10.00;5.05;;;;;;;31.32;57.80;100841.43;1675375;80;21266;-56
2023/08/20 10:10:13;;;;;;;6.55;4.10;;;;;;;31.41;57.25;100845.30;1681775;81;21274;-56
2023/08/20 10:15:47;;;;;;;9.23;4.47;;;;;;;31.62;56.45;100837.64;1675941;81;21250;-56
2023/08/20 10:23:57;;;;;;;6.75;4.30;;;;;;;31.92;55.19;100844.92;1645521;82;22238;-56
2023/08/20 10:26:56;;;;;;;8.75;4.90;;;;;;;32.02;54.76;100841.91;1679766;81;21225;-57
2023/08/20 10:30:03;;;;;;;7.10;4.42;;;;;;;32.17;54.35;100832.34;1678696;82;21268;-53
2023/08/20 10:35:53;;;;;;;11.35;4.37;;;;;;;32.47;53.39;100828.47;1706158;80;21317;-56
2023/08/20 10:38:59;;;;;;;9.05;4.47;;;;;;;32.60;52.98;100826.23;1706918;80;21780;-54
2023/08/20 10:42:28;;;;;;;12.20;4.95;;;;;;;32.74;52.35;100824.30;1654776;81;21322;-55
2023/08/20 10:45:34;;;;;;;9.58;3.50;;;;;;;32.76;51.76;100817.71;1682626;82;21235;-56
2023/08/20 10:48:41;;;;;;;6.83;3.52;;;;;;;32.86;51.23;100807.59;1688818;80;21293;-56
2023/08/20 10:51:47;;;;;;;6.05;3.55;;;;;;;33.01;50.76;100814.45;1644414;82;21255;-56
2023/08/20 10:57:21;;;;;;;6.85;3.58;;;;;;;33.25;49.86;100806.55;1702326;80;21240;-55
2023/08/20 11:00:28;;;;;;;5.12;3.27;;;;;;;33.34;49.47;100790.47;1712606;80;21283;-56
2023/08/20 11:08:35;;;;;;;6.20;4.10;;;;;;;33.57;48.23;100784.30;1742534;80;20590;-56
2023/08/20 11:11:41;;;;;;;10.05;3.92;;;;;;;33.60;48.07;100785.67;1735980;79;21218;-54
2023/08/20 11:17:17;;;;;;;7.10;4.55;;;;;;;33.74;47.49;100780.80;1741546;79;21383;-54
2023/08/20 11:20:25;;;;;;;8.35;3.95;;;;;;;33.82;47.32;100781.47;1744973;80;21721;-54
2023/08/20 11:26:00;;;;;;;6.65;3.90;;;;;;;33.83;46.62;100767.51;1746087;78;21763;-55
2023/08/20 11:31:37;;;;;;;5.78;3.20;;;;;;;33.85;46.07;100768.03;1706821;79;21270;-56
2023/08/20 11:39:45;;;;;;;7.37;3.37;;;;;;;33.92;45.05;100752.84;1697225;78;21261;-56
2023/08/20 11:47:49;;;;;;;7.85;3.58;;;;;;;33.95;44.23;100745.09;1693253;81;21273;-56
2023/08/20 11:53:29;;;;;;;4.67;3.35;;;;;;;33.99;43.80;100737.02;1704044;81;21249;-56
2023/08/20 11:56:29;;;;;;;7.25;3.55;;;;;;;34.00;43.50;100730.77;1681004;82;21474;-56
2023/08/20 12:02:09;;;;;;;5.15;3.00;;;;;;;33.92;42.86;100727.27;1641561;83;21236;-56
2023/08/20 12:05:16;;;;;;;4.60;2.50;;;;;;;33.91;42.56;100727.00;1683673;78;21763;-56
2023/08/20 12:08:03;;;;;;;7.12;2.98;;;;;;;33.94;42.46;100727.77;1674396;82;21902;-56
2023/08/20 12:10:34;;;;;;;8.18;3.85;;;;;;;33.96;42.29;100719.20;1702981;80;21173;-57
2023/08/20 12:13:02;;;;;;;6.80;3.65;;;;;;;33.96;42.09;100712.66;1694576;81;21995;-57
2023/08/20 12:16:09;;;;;;;7.00;3.42;;;;;;;33.97;41.92;100715.75;1662561;81;21774;-57
2023/08/20 12:19:16;;;;;;;6.60;3.37;;;;;;;33.97;41.67;100707.23;1693352;80;21255;-56
2023/08/20 12:22:23;;;;;;;8.28;3.55;;;;;;;33.93;41.42;100713.31;1682780;81;21376;-56
2023/08/20 12:25:31;;;;;;;7.92;3.50;;;;;;;33.86;41.21;100702.36;1694159;80;21372;-55
2023/08/20 12:28:37;;;;;;;7.62;3.20;;;;;;;33.77;41.00;100704.30;1709297;80;21953;-55
2023/08/20 12:31:46;;;;;;;7.08;3.55;;;;;;;33.70;40.87;100698.81;1701494;80;21303;-56
2023/08/20 12:34:53;;;;;;;5.47;3.12;;;;;;;33.62;40.67;100701.00;1700466;79;23656;-57
2023/08/20 12:37:59;;;;;;;5.78;3.20;;;;;;;33.54;40.61;100696.08;1704111;80;21286;-56
2023/08/20 12:41:06;;;;;;;6.28;3.40;;;;;;;33.49;40.52;100697.02;1687238;82;21299;-56
2023/08/20 12:46:42;;;;;;;8.08;3.40;;;;;;;33.44;40.36;100693.47;1707098;79;21393;-56
2023/08/20 12:49:48;;;;;;;7.17;3.50;;;;;;;33.43;40.27;100687.55;1710093;79;21423;-56
2023/08/20 12:58:04;;;;;;;6.40;3.70;;;;;;;33.34;39.91;100686.84;1710214;80;22002;-57
2023/08/20 13:01:09;;;;;;;4.80;3.22;;;;;;;33.33;39.79;100682.91;1705331;81;21222;-56
2023/08/20 13:06:30;;;;;;;6.72;3.12;;;;;;;33.31;39.70;100676.70;1641336;81;21710;-58
2023/08/20 13:09:37;;;;;;;5.60;2.50;;;;;;;33.31;39.56;100680.39;1647225;81;21244;-57
2023/08/20 13:15:15;;;;;;;4.97;3.30;;;;;;;33.28;39.24;100678.76;1656480;81;21320;-57
2023/08/20 13:20:52;;;;;;;10.50;3.33;;;;;;;33.28;39.07;100679.58;1695686;79;21261;-57
2023/08/20 13:26:35;;;;;;;6.05;3.05;;;;;;;33.29;38.96;100679.01;1678127;81;21254;-56
2023/08/20 13:29:43;;;;;;;7.87;2.70;;;;;;;33.28;38.85;100666.80;1676112;82;21420;-55
2023/08/20 13:32:49;;;;;;;5.58;2.83;;;;;;;33.26;38.73;100666.88;1672259;82;21335;-56
2023/08/20 13:38:25;;;;;;;5.55;3.00;;;;;;;33.23;38.51;100657.58;1675515;83;21805;-56
2023/08/20 13:41:30;;;;;;;6.50;2.92;;;;;;;33.22;38.37;100658.15;1630484;85;21318;-56
2023/08/20 13:44:37;;;;;;;4.95;3.10;;;;;;;33.21;38.21;100660.74;1676482;82;21372;-57
2023/08/20 13:50:13;;;;;;;5.12;3.00;;;;;;;33.20;37.85;100648.29;1672798;82;21474;-57
2023/08/20 13:55:48;;;;;;;5.00;3.15;;;;;;;33.17;37.59;100645.49;1673578;83;21255;-57
2023/08/20 14:01:26;;;;;;;5.45;2.45;;;;;;;33.15;37.36;100643.58;1675271;82;21259;-57
2023/08/20 14:09:34;;;;;;;7.40;2.80;;;;;;;33.15;36.99;100642.16;1673903;81;21831;-58
2023/08/20 14:15:10;;;;;;;5.62;2.75;;;;;;;33.16;36.85;100642.41;1708483;80;21780;-58
2023/08/20 14:20:45;;;;;;;6.03;4.08;;;;;;;33.22;36.54;100637.47;1680827;79;21249;-57
2023/08/20 14:26:20;;;;;;;5.60;3.00;;;;;;;33.23;36.05;100637.14;1719486;81;21223;-57
2023/08/20 14:31:55;;;;;;;7.75;2.77;;;;;;;33.19;35.73;100636.09;1662434;81;21263;-57
2023/08/20 14:37:31;;;;;;;5.22;2.75;;;;;;;33.15;35.40;100629.38;1687053;79;21840;-57
2023/08/20 14:43:06;;;;;;;6.92;2.30;;;;;;;33.12;34.99;100624.92;1717797;80;21214;-56
2023/08/20 14:46:11;;;;;;;5.42;2.05;;;;;;;33.09;34.86;100625.56;1658256;81;21244;-56
2023/08/20 14:54:17;;;;;;;5.55;3.35;;;;;;;33.06;34.65;100624.18;1709327;79;21385;-57
2023/08/20 14:59:52;;;;;;;5.90;2.80;;;;;;;33.07;34.77;100623.04;1711127;80;21255;-57
2023/08/20 15:05:28;;;;;;;7.08;3.02;;;;;;;32.99;35.06;100620.95;1716715;79;21219;-57
2023/08/20 15:08:33;;;;;;;9.05;3.00;;;;;;;32.95;35.23;100617.06;1721874;80;21472;-57
2023/08/20 15:11:39;;;;;;;6.08;2.90;;;;;;;32.87;35.33;100613.52;1700751;81;21390;-57
2023/08/20 15:17:14;;;;;;;8.95;2.92;;;;;;;32.73;35.50;100614.12;1724311;81;21812;-57
2023/08/20 15:22:50;;;;;;;5.62;3.00;;;;;;;32.64;35.89;100610.36;1661959;80;21251;-56
2023/08/20 15:28:25;;;;;;;7.37;3.52;;;;;;;32.54;36.10;100606.30;1678094;80;21239;-56
2023/08/20 15:36:31;;;;;;;7.42;3.42;;;;;;;32.42;36.37;100608.84;1686429;79;21247;-56
2023/08/20 15:42:07;;;;;;;6.58;3.20;;;;;;;32.30;36.75;100596.31;1692257;81;21268;-56
2023/08/20 15:47:42;;;;;;;6.10;3.62;;;;;;;32.13;37.18;100601.16;1713762;80;21283;-56
2023/08/20 15:53:18;;;;;;;9.68;3.50;;;;;;;32.00;37.74;100597.16;1700492;78;21251;-56
2023/08/20 15:58:52;;;;;;;12.25;5.15;;;;;;;31.79;38.45;100599.24;1708047;80;21253;-56
2023/08/20 16:04:30;;;;;;;9.70;4.78;;;;;;;31.71;38.99;100593.69;1701347;79;21245;-56
2023/08/20 16:12:35;;;;;;;11.73;5.40;;;;;;;31.35;40.25;100605.36;1711863;79;21864;-56
2023/08/20 16:18:11;;;;;;;15.83;4.97;;;;;;;31.08;41.11;100604.36;1708192;79;21802;-56
2023/08/20 16:23:48;;;;;;;20.43;5.72;;;;;;;30.84;41.95;100606.41;1710326;80;21236;-56
2023/08/20 16:29:24;;;;;;;14.95;6.37;;;;;;;30.75;42.67;100606.20;1699582;80;22140;-56
2023/08/20 16:34:59;;;;;;;15.40;7.67;;;;;;;30.47;43.52;100611.38;1667014;80;21287;-56
2023/08/20 16:40:36;;;;;;;23.32;11.68;;;;;;;30.15;44.34;100605.50;1681366;80;21376;-56
2023/08/20 16:43:41;;;;;;;35.23;16.90;;;;;;;30.00;44.76;100602.27;1678907;82;21232;-56
2023/08/20 16:49:20;;;;;;;45.65;23.45;;;;;;;29.62;45.67;100605.99;1687964;80;21896;-56
2023/08/20 16:57:26;;;;;;;47.13;21.52;;;;;;;29.14;46.86;100605.55;1697917;81;21214;-55
2023/08/20 17:03:02;;;;;;;90.38;43.78;;;;;;;28.84;47.70;100611.34;1698129;80;22191;-57
2023/08/20 17:08:39;;;;;;;286.98;161.62;;;;;;;28.57;48.50;100613.73;1701706;79;21389;-56
2023/08/20 17:16:44;;;;;;;197.43;116.03;;;;;;;28.22;49.45;100630.72;1690365;80;21229;-57
2023/08/20 17:19:49;;;;;;;205.90;121.13;;;;;;;28.11;49.79;100629.06;1691338;80;21660;-57
2023/08/20 17:25:21;;;;;;;156.47;91.53;;;;;;;27.80;50.37;100619.23;1676712;82;21179;-57
2023/08/20 17:30:57;;;;;;;147.13;81.92;;;;;;;27.53;50.96;100624.30;1699355;80;21617;-57
2023/08/20 17:36:32;;;;;;;153.15;87.82;;;;;;;27.27;51.66;100635.83;1686652;82;21262;-56
2023/08/20 17:39:38;;;;;;;154.05;87.00;;;;;;;27.17;52.02;100647.87;1677085;81;21219;-56
2023/08/20 17:45:13;;;;;;;143.35;82.92;;;;;;;26.96;52.83;100639.09;1681306;81;21214;-57
2023/08/20 17:53:19;;;;;;;119.60;64.95;;;;;;;26.70;53.64;100642.96;1703045;80;21851;-55
2023/08/20 17:56:24;;;;;;;99.05;56.85;;;;;;;26.61;53.80;100636.70;1709593;80;21240;-56
2023/08/20 18:01:59;;;;;;;94.55;52.85;;;;;;;26.36;54.33;100638.83;1688246;81;21905;-56
2023/08/20 18:07:34;;;;;;;100.35;56.37;;;;;;;26.15;54.93;100634.20;1700499;81;21283;-57
2023/08/20 18:13:09;;;;;;;127.07;74.90;;;;;;;25.98;55.53;100632.96;1704941;79;21216;-57
2023/08/20 18:16:16;;;;;;;112.60;61.65;;;;;;;25.93;55.83;100627.86;1685108;80;21309;-57
2023/08/20 18:21:50;;;;;;;124.35;66.87;;;;;;;25.78;56.47;100624.97;1681738;80;21237;-56
2023/08/20 18:27:28;;;;;;;127.35;71.33;;;;;;;25.64;56.87;100637.76;1660005;81;21239;-57
2023/08/20 18:35:36;;;;;;;155.15;76.10;;;;;;;25.39;57.45;100629.11;1714407;80;21263;-56
2023/08/20 18:41:12;;;;;;;144.85;73.80;;;;;;;25.23;57.94;100628.09;1718893;79;21237;-56
2023/08/20 18:46:50;;;;;;;213.18;92.62;;;;;;;25.10;58.60;100632.75;1707184;80;21714;-56
2023/08/20 18:52:25;;;;;;;169.40;74.05;;;;;;;24.98;59.08;100627.84;1674105;80;21351;-57
2023/08/20 18:55:31;;;;;;;82.95;36.45;;;;;;;24.94;59.30;100628.91;1705509;79;21246;-56
2023/08/20 19:01:04;;;;;;;87.37;38.73;;;;;;;24.81;59.67;100628.50;1685071;80;21710;-56
2023/08/20 19:06:42;;;;;;;69.77;31.10;;;;;;;24.68;59.92;100632.55;1691346;80;21873;-57
2023/08/20 19:12:19;;;;;;;77.05;34.63;;;;;;;24.54;60.30;100634.03;1694998;80;22139;-56
2023/08/20 19:17:54;;;;;;;63.08;29.67;;;;;;;24.41;60.60;100632.16;1679194;80;21295;-57
2023/08/20 19:21:03;;;;;;;67.15;32.08;;;;;;;24.35;60.72;100634.06;1685203;80;21785;-56
2023/08/20 19:29:08;;;;;;;65.17;32.13;;;;;;;24.17;61.27;100631.56;1691549;80;21269;-56
2023/08/20 19:34:43;;;;;;;56.20;26.30;;;;;;;24.09;61.62;100636.20;1707441;79;21299;-56
2023/08/20 19:40:21;;;;;;;52.53;24.45;;;;;;;24.02;62.11;100637.50;1669018;81;21267;-57
2023/08/20 19:45:57;;;;;;;63.65;27.05;;;;;;;23.96;62.43;100638.50;1669339;80;21845;-56
2023/08/20 19:51:34;;;;;;;53.55;27.17;;;;;;;23.88;62.73;100643.95;1705437;81;21251;-57
2023/08/20 19:57:08;;;;;;;50.28;25.32;;;;;;;23.79;63.07;100643.25;1695571;80;21347;-56
2023/08/20 20:02:46;;;;;;;47.93;22.22;;;;;;;23.71;63.33;100644.53;1675107;80;21379;-56
2023/08/20 20:10:52;;;;;;;43.33;20.50;;;;;;;23.57;63.77;100647.37;1678323;81;21338;-56
2023/08/20 20:18:58;;;;;;;41.55;21.82;;;;;;;23.44;64.05;100653.30;1679420;80;21293;-56
2023/08/20 20:24:32;;;;;;;29.23;17.30;;;;;;;23.35;64.28;100650.63;1626263;82;21749;-57
2023/08/20 20:30:09;;;;;;;27.82;15.95;;;;;;;23.21;64.41;100645.86;1669928;80;21469;-56
2023/08/20 20:38:15;;;;;;;29.70;16.85;;;;;;;23.10;64.88;100641.77;1679556;80;21765;-56
2023/08/20 20:43:54;;;;;;;28.65;17.30;;;;;;;23.04;65.14;100651.16;1674970;81;21450;-56
2023/08/20 20:49:32;;;;;;;32.28;17.23;;;;;;;22.97;65.38;100649.05;1708941;79;21366;-57
2023/08/20 20:55:08;;;;;;;25.88;15.32;;;;;;;22.92;65.73;100645.61;1729308;78;21745;-57
2023/08/20 21:03:15;;;;;;;27.58;15.58;;;;;;;22.85;66.14;100631.52;1736086;79;22068;-55
2023/08/20 21:06:21;;;;;;;35.90;16.55;;;;;;;22.84;66.24;100642.36;1743442;78;21235;-55
2023/08/20 21:11:55;;;;;;;41.18;17.77;;;;;;;22.79;66.62;100635.28;1745333;79;21180;-55
2023/08/20 21:14:53;;;;;;;41.73;18.02;;;;;;;22.77;66.70;100636.09;1745527;79;21235;-57
2023/08/20 21:17:59;;;;;;;39.90;18.50;;;;;;;22.74;66.76;100632.41;1733530;79;21414;-57
2023/08/20 21:20:58;;;;;;;40.00;19.57;;;;;;;22.70;66.84;100633.98;1738958;80;21235;-56
2023/08/20 21:24:05;;;;;;;43.48;19.95;;;;;;;22.64;66.88;100633.59;1738325;78;21366;-57
2023/08/20 21:29:42;;;;;;;42.75;19.95;;;;;;;22.51;67.05;100629.66;1732078;80;21394;-56
2023/08/20 21:35:27;;;;;;;28.50;15.40;;;;;;;22.44;67.29;100627.57;1679083;81;21309;-56
2023/08/20 21:38:26;;;;;;;32.53;17.50;;;;;;;22.42;67.49;100625.56;1715521;80;21798;-56
2023/08/20 21:41:31;;;;;;;32.80;15.65;;;;;;;22.39;67.64;100628.86;1703364;81;21264;-55
2023/08/20 21:44:37;;;;;;;29.95;15.08;;;;;;;22.35;67.74;100622.05;1725125;80;21879;-56
2023/08/20 21:50:17;;;;;;;25.20;14.18;;;;;;;22.27;67.97;100624.69;1717242;80;21243;-56
2023/08/20 21:53:24;;;;;;;23.67;12.73;;;;;;;22.25;68.04;100626.87;1658221;82;21767;-56
2023/08/20 21:56:30;;;;;;;24.07;12.47;;;;;;;22.23;68.13;100617.06;1718444;80;21212;-56
2023/08/20 22:02:03;;;;;;;25.45;13.08;;;;;;;22.15;68.43;100611.33;1665669;80;21236;-57
2023/08/20 22:07:38;;;;;;;24.02;11.93;;;;;;;22.12;68.72;100619.63;1714516;78;22078;-54
2023/08/20 22:13:12;;;;;;;19.95;11.57;;;;;;;22.10;68.98;100611.21;1710652;79;21389;-55
2023/08/20 22:18:48;;;;;;;17.23;10.50;;;;;;;22.04;69.05;100613.02;1717931;79;21754;-55
2023/08/20 22:26:56;;;;;;;14.45;10.18;;;;;;;22.01;69.44;100614.91;1720350;80;21793;-55
2023/08/20 22:30:01;;;;;;;17.42;9.50;;;;;;;22.00;69.46;100609.58;1713800;80;21239;-55
2023/08/20 22:35:34;;;;;;;15.48;9.90;;;;;;;21.95;69.66;100606.14;1714081;81;21871;-55
2023/08/20 22:41:10;;;;;;;16.32;9.73;;;;;;;21.90;69.76;100601.84;1675757;81;21306;-55
2023/08/20 22:46:44;;;;;;;17.32;10.20;;;;;;;21.89;70.00;100609.05;1720145;80;21378;-55
2023/08/20 22:49:49;;;;;;;16.20;9.50;;;;;;;21.88;70.06;100604.58;1722653;80;21994;-55
2023/08/20 22:55:23;;;;;;;19.05;9.75;;;;;;;21.86;70.35;100606.22;1718711;80;21219;-56
2023/08/20 23:01:01;;;;;;;17.37;9.90;;;;;;;21.83;70.40;100608.10;1695474;80;21390;-56
2023/08/20 23:06:36;;;;;;;16.77;9.20;;;;;;;21.80;70.65;100615.53;1677705;83;21473;-56